sensor_id;sensor_type;location;lat;lon;timestamp;temperature;humidity
67163;DHT22;54092;53.088;8.850;2022-07-04T00:01:57;15.50;99.90
67163;DHT22;54092;53.088;8.850;2022-07-04T00:04:23;15.40;99.90
67163;DHT22;54092;53.088;8.850;2022-07-04T00:06:48;15.40;99.90
67163;DHT22;54092;53.088;8.850;2022-07-04T00:09:14;15.40;99.90
67163;DHT22;54092;53.088;8.850;2022-07-04T00:11:39;15.30;99.90
67163;DHT22;54092;53.088;8.850;2022-07-04T00:14:04;15.30;99.90
67163;DHT22;54092;53.088;8.850;2022-07-04T00:16:30;15.30;99.90
67163;DHT22;54092;53.088;8.850;2022-07-04T00:18:55;15.30;99.90
67163;DHT22;54092;53.088;8.850;2022-07-04T00:21:21;15.30;99.90
67163;DHT22;54092;53.088;8.850;2022-07-04T00:23:46;15.30;99.90
67163;DHT22;54092;53.088;8.850;2022-07-04T00:26:12;15.30;99.90
67163;DHT22;54092;53.088;8.850;2022-07-04T00:28:37;15.20;99.90
67163;DHT22;54092;53.088;8.850;2022-07-04T00:31:03;15.20;99.90
67163;DHT22;54092;53.088;8.850;2022-07-04T00:33:28;15.20;99.90
67163;DHT22;54092;53.088;8.850;2022-07-04T00:35:53;15.20;99.90
67163;DHT22;54092;53.088;8.850;2022-07-04T00:38:19;15.20;99.90
67163;DHT22;54092;53.088;8.850;2022-07-04T00:40:44;15.10;99.90
67163;DHT22;54092;53.088;8.850;2022-07-04T00:43:10;15.10;99.90
67163;DHT22;54092;53.088;8.850;2022-07-04T00:45:35;15.10;99.90
67163;DHT22;54092;53.088;8.850;2022-07-04T00:48:00;15.00;99.90
67163;DHT22;54092;53.088;8.850;2022-07-04T00:50:26;15.00;99.90
67163;DHT22;54092;53.088;8.850;2022-07-04T00:52:52;15.00;99.90
67163;DHT22;54092;53.088;8.850;2022-07-04T00:55:18;15.00;99.90
67163;DHT22;54092;53.088;8.850;2022-07-04T00:57:43;14.90;99.90
67163;DHT22;54092;53.088;8.850;2022-07-04T01:00:09;14.90;99.90
67163;DHT22;54092;53.088;8.850;2022-07-04T01:02:34;15.00;99.90
67163;DHT22;54092;53.088;8.850;2022-07-04T01:05:00;14.90;99.90
67163;DHT22;54092;53.088;8.850;2022-07-04T01:07:25;14.90;99.90
67163;DHT22;54092;53.088;8.850;2022-07-04T01:09:51;14.90;99.90
67163;DHT22;54092;53.088;8.850;2022-07-04T01:12:24;14.90;99.90
67163;DHT22;54092;53.088;8.850;2022-07-04T01:14:50;14.90;99.90
67163;DHT22;54092;53.088;8.850;2022-07-04T01:17:15;14.90;99.90
67163;DHT22;54092;53.088;8.850;2022-07-04T01:19:41;14.80;99.90
67163;DHT22;54092;53.088;8.850;2022-07-04T01:22:06;14.80;99.90
67163;DHT22;54092;53.088;8.850;2022-07-04T01:24:32;14.70;99.90
67163;DHT22;54092;53.088;8.850;2022-07-04T01:26:58;14.70;99.90
67163;DHT22;54092;53.088;8.850;2022-07-04T01:29:23;14.70;99.90
67163;DHT22;54092;53.088;8.850;2022-07-04T01:31:49;14.70;99.90
67163;DHT22;54092;53.088;8.850;2022-07-04T01:34:15;14.60;99.90
67163;DHT22;54092;53.088;8.850;2022-07-04T01:36:40;14.60;99.90
67163;DHT22;54092;53.088;8.850;2022-07-04T01:39:06;14.60;99.90
67163;DHT22;54092;53.088;8.850;2022-07-04T01:41:34;14.60;99.90
67163;DHT22;54092;53.088;8.850;2022-07-04T01:44:00;14.60;99.90
67163;DHT22;54092;53.088;8.850;2022-07-04T01:46:26;14.60;99.90
67163;DHT22;54092;53.088;8.850;2022-07-04T01:48:51;14.60;99.90
67163;DHT22;54092;53.088;8.850;2022-07-04T01:51:17;14.60;99.90
67163;DHT22;54092;53.088;8.850;2022-07-04T01:53:42;14.60;99.90
67163;DHT22;54092;53.088;8.850;2022-07-04T01:56:07;14.60;99.90
67163;DHT22;54092;53.088;8.850;2022-07-04T01:58:33;14.60;99.90
67163;DHT22;54092;53.088;8.850;2022-07-04T02:00:58;14.60;99.90
67163;DHT22;54092;53.088;8.850;2022-07-04T02:03:42;14.60;99.90
67163;DHT22;54092;53.088;8.850;2022-07-04T02:06:08;14.50;99.90
67163;DHT22;54092;53.088;8.850;2022-07-04T02:08:33;14.50;99.90
67163;DHT22;54092;53.088;8.850;2022-07-04T02:11:17;14.50;99.90
67163;DHT22;54092;53.088;8.850;2022-07-04T02:13:43;14.40;99.90
67163;DHT22;54092;53.088;8.850;2022-07-04T02:16:08;14.40;99.90
67163;DHT22;54092;53.088;8.850;2022-07-04T02:18:34;14.40;99.90
67163;DHT22;54092;53.088;8.850;2022-07-04T02:20:59;14.40;99.90
67163;DHT22;54092;53.088;8.850;2022-07-04T02:23:25;14.30;99.90
67163;DHT22;54092;53.088;8.850;2022-07-04T02:25:50;14.30;99.90
67163;DHT22;54092;53.088;8.850;2022-07-04T02:28:15;14.30;99.90
67163;DHT22;54092;53.088;8.850;2022-07-04T02:30:41;14.20;99.90
67163;DHT22;54092;53.088;8.850;2022-07-04T02:33:06;14.20;99.90
67163;DHT22;54092;53.088;8.850;2022-07-04T02:35:32;14.20;99.90
67163;DHT22;54092;53.088;8.850;2022-07-04T02:37:57;14.20;99.90
67163;DHT22;54092;53.088;8.850;2022-07-04T02:40:22;14.10;99.90
67163;DHT22;54092;53.088;8.850;2022-07-04T02:42:48;14.10;99.90
67163;DHT22;54092;53.088;8.850;2022-07-04T02:45:13;14.10;99.90
67163;DHT22;54092;53.088;8.850;2022-07-04T02:47:39;14.10;99.90
67163;DHT22;54092;53.088;8.850;2022-07-04T02:50:04;14.10;99.90
67163;DHT22;54092;53.088;8.850;2022-07-04T02:52:30;14.10;99.90
67163;DHT22;54092;53.088;8.850;2022-07-04T02:54:55;14.10;99.90
67163;DHT22;54092;53.088;8.850;2022-07-04T02:57:21;14.20;99.90
67163;DHT22;54092;53.088;8.850;2022-07-04T02:59:46;14.20;99.90
67163;DHT22;54092;53.088;8.850;2022-07-04T03:02:12;14.20;99.90
67163;DHT22;54092;53.088;8.850;2022-07-04T03:04:37;14.20;99.90
67163;DHT22;54092;53.088;8.850;2022-07-04T03:07:05;14.20;99.90
67163;DHT22;54092;53.088;8.850;2022-07-04T03:09:31;14.20;99.90
67163;DHT22;54092;53.088;8.850;2022-07-04T03:11:57;14.20;99.90
67163;DHT22;54092;53.088;8.850;2022-07-04T03:14:22;14.30;99.90
67163;DHT22;54092;53.088;8.850;2022-07-04T03:16:47;14.20;99.90
67163;DHT22;54092;53.088;8.850;2022-07-04T03:19:13;14.20;99.90
67163;DHT22;54092;53.088;8.850;2022-07-04T03:21:38;14.30;99.90
67163;DHT22;54092;53.088;8.850;2022-07-04T03:24:04;14.20;99.90
67163;DHT22;54092;53.088;8.850;2022-07-04T03:26:30;14.20;99.90
67163;DHT22;54092;53.088;8.850;2022-07-04T03:28:56;14.20;99.90
67163;DHT22;54092;53.088;8.850;2022-07-04T03:31:22;14.20;99.90
67163;DHT22;54092;53.088;8.850;2022-07-04T03:33:47;14.20;99.90
67163;DHT22;54092;53.088;8.850;2022-07-04T03:36:13;14.20;99.90
67163;DHT22;54092;53.088;8.850;2022-07-04T03:38:38;14.30;99.90
67163;DHT22;54092;53.088;8.850;2022-07-04T03:41:04;14.20;99.90
67163;DHT22;54092;53.088;8.850;2022-07-04T03:43:29;14.20;99.90
67163;DHT22;54092;53.088;8.850;2022-07-04T03:45:55;14.20;99.90
67163;DHT22;54092;53.088;8.850;2022-07-04T03:48:20;14.30;99.90
67163;DHT22;54092;53.088;8.850;2022-07-04T03:50:46;14.30;99.90
67163;DHT22;54092;53.088;8.850;2022-07-04T03:53:11;14.30;99.90
67163;DHT22;54092;53.088;8.850;2022-07-04T03:55:37;14.30;99.90
67163;DHT22;54092;53.088;8.850;2022-07-04T03:58:03;14.30;99.90
67163;DHT22;54092;53.088;8.850;2022-07-04T04:00:30;14.10;99.90
67163;DHT22;54092;53.088;8.850;2022-07-04T04:02:55;14.20;99.90
67163;DHT22;54092;53.088;8.850;2022-07-04T04:05:21;14.20;99.90
67163;DHT22;54092;53.088;8.850;2022-07-04T04:07:53;14.10;99.90
67163;DHT22;54092;53.088;8.850;2022-07-04T04:10:18;14.20;99.90
67163;DHT22;54092;53.088;8.850;2022-07-04T04:12:44;14.20;99.90
67163;DHT22;54092;53.088;8.850;2022-07-04T04:15:09;14.20;99.90
67163;DHT22;54092;53.088;8.850;2022-07-04T04:17:34;14.20;99.90
67163;DHT22;54092;53.088;8.850;2022-07-04T04:20:00;14.30;99.90
67163;DHT22;54092;53.088;8.850;2022-07-04T04:22:27;14.20;99.90
67163;DHT22;54092;53.088;8.850;2022-07-04T04:24:53;14.30;99.90
67163;DHT22;54092;53.088;8.850;2022-07-04T04:27:18;14.40;99.90
67163;DHT22;54092;53.088;8.850;2022-07-04T04:29:43;14.40;99.90
67163;DHT22;54092;53.088;8.850;2022-07-04T04:32:09;14.40;99.90
67163;DHT22;54092;53.088;8.850;2022-07-04T04:34:34;14.50;99.90
67163;DHT22;54092;53.088;8.850;2022-07-04T04:37:00;14.60;99.90
67163;DHT22;54092;53.088;8.850;2022-07-04T04:39:25;14.60;99.90
67163;DHT22;54092;53.088;8.850;2022-07-04T04:41:51;14.70;99.90
67163;DHT22;54092;53.088;8.850;2022-07-04T04:44:16;14.80;99.90
67163;DHT22;54092;53.088;8.850;2022-07-04T04:46:42;14.80;99.90
67163;DHT22;54092;53.088;8.850;2022-07-04T04:49:07;14.90;99.90
67163;DHT22;54092;53.088;8.850;2022-07-04T04:51:33;15.00;99.90
67163;DHT22;54092;53.088;8.850;2022-07-04T04:53:58;15.10;99.90
67163;DHT22;54092;53.088;8.850;2022-07-04T04:56:23;15.20;99.90
67163;DHT22;54092;53.088;8.850;2022-07-04T04:58:49;15.30;99.90
67163;DHT22;54092;53.088;8.850;2022-07-04T05:01:14;15.30;99.90
67163;DHT22;54092;53.088;8.850;2022-07-04T05:03:40;15.40;99.90
67163;DHT22;54092;53.088;8.850;2022-07-04T05:06:05;15.40;99.90
67163;DHT22;54092;53.088;8.850;2022-07-04T05:08:31;15.40;99.90
67163;DHT22;54092;53.088;8.850;2022-07-04T05:10:56;15.50;99.90
67163;DHT22;54092;53.088;8.850;2022-07-04T05:13:22;15.60;99.90
67163;DHT22;54092;53.088;8.850;2022-07-04T05:15:47;15.80;99.90
67163;DHT22;54092;53.088;8.850;2022-07-04T05:18:13;15.90;99.90
67163;DHT22;54092;53.088;8.850;2022-07-04T05:20:38;16.00;99.90
67163;DHT22;54092;53.088;8.850;2022-07-04T05:23:04;16.00;99.90
67163;DHT22;54092;53.088;8.850;2022-07-04T05:25:30;16.10;99.90
67163;DHT22;54092;53.088;8.850;2022-07-04T05:27:55;16.10;99.90
67163;DHT22;54092;53.088;8.850;2022-07-04T05:30:21;16.10;99.90
67163;DHT22;54092;53.088;8.850;2022-07-04T05:32:46;16.10;99.90
67163;DHT22;54092;53.088;8.850;2022-07-04T05:35:12;16.20;99.90
67163;DHT22;54092;53.088;8.850;2022-07-04T05:37:37;16.30;99.90
67163;DHT22;54092;53.088;8.850;2022-07-04T05:40:03;16.30;99.90
67163;DHT22;54092;53.088;8.850;2022-07-04T05:42:28;16.30;99.90
67163;DHT22;54092;53.088;8.850;2022-07-04T05:44:54;16.40;99.90
67163;DHT22;54092;53.088;8.850;2022-07-04T05:47:19;16.40;99.90
67163;DHT22;54092;53.088;8.850;2022-07-04T05:49:49;16.50;99.90
67163;DHT22;54092;53.088;8.850;2022-07-04T05:52:14;16.60;99.90
67163;DHT22;54092;53.088;8.850;2022-07-04T05:54:40;16.60;99.90
67163;DHT22;54092;53.088;8.850;2022-07-04T05:57:05;16.70;99.90
67163;DHT22;54092;53.088;8.850;2022-07-04T05:59:31;16.80;99.90
67163;DHT22;54092;53.088;8.850;2022-07-04T06:01:56;16.80;99.90
67163;DHT22;54092;53.088;8.850;2022-07-04T06:04:22;16.90;99.90
67163;DHT22;54092;53.088;8.850;2022-07-04T06:06:47;17.00;99.90
67163;DHT22;54092;53.088;8.850;2022-07-04T06:09:13;16.90;99.90
67163;DHT22;54092;53.088;8.850;2022-07-04T06:11:38;17.00;99.90
67163;DHT22;54092;53.088;8.850;2022-07-04T06:14:03;17.00;99.90
67163;DHT22;54092;53.088;8.850;2022-07-04T06:16:29;17.00;99.90
67163;DHT22;54092;53.088;8.850;2022-07-04T06:18:55;17.00;99.90
67163;DHT22;54092;53.088;8.850;2022-07-04T06:21:20;17.10;99.90
67163;DHT22;54092;53.088;8.850;2022-07-04T06:23:46;17.00;99.90
67163;DHT22;54092;53.088;8.850;2022-07-04T06:26:11;17.00;99.90
67163;DHT22;54092;53.088;8.850;2022-07-04T06:28:37;17.10;99.90
67163;DHT22;54092;53.088;8.850;2022-07-04T06:31:02;17.20;99.90
67163;DHT22;54092;53.088;8.850;2022-07-04T06:33:28;17.30;99.90
67163;DHT22;54092;53.088;8.850;2022-07-04T06:35:53;17.30;99.90
67163;DHT22;54092;53.088;8.850;2022-07-04T06:38:24;17.30;99.90
67163;DHT22;54092;53.088;8.850;2022-07-04T06:40:50;17.50;99.90
67163;DHT22;54092;53.088;8.850;2022-07-04T06:43:15;17.50;99.90
67163;DHT22;54092;53.088;8.850;2022-07-04T06:45:41;17.60;99.90
67163;DHT22;54092;53.088;8.850;2022-07-04T06:48:06;17.60;99.90
67163;DHT22;54092;53.088;8.850;2022-07-04T06:50:32;17.60;99.50
67163;DHT22;54092;53.088;8.850;2022-07-04T06:53:05;17.70;99.90
67163;DHT22;54092;53.088;8.850;2022-07-04T06:55:31;17.70;99.90
67163;DHT22;54092;53.088;8.850;2022-07-04T06:57:56;17.80;97.90
67163;DHT22;54092;53.088;8.850;2022-07-04T07:00:21;17.90;98.30
67163;DHT22;54092;53.088;8.850;2022-07-04T07:02:47;18.10;98.50
67163;DHT22;54092;53.088;8.850;2022-07-04T07:05:12;18.10;97.30
67163;DHT22;54092;53.088;8.850;2022-07-04T07:07:38;18.00;96.00
67163;DHT22;54092;53.088;8.850;2022-07-04T07:10:03;17.90;98.10
67163;DHT22;54092;53.088;8.850;2022-07-04T07:12:31;18.00;98.90
67163;DHT22;54092;53.088;8.850;2022-07-04T07:14:57;18.10;98.00
67163;DHT22;54092;53.088;8.850;2022-07-04T07:17:22;18.30;93.80
67163;DHT22;54092;53.088;8.850;2022-07-04T07:19:48;18.30;89.70
67163;DHT22;54092;53.088;8.850;2022-07-04T07:22:13;18.30;91.00
67163;DHT22;54092;53.088;8.850;2022-07-04T07:24:39;18.30;90.70
67163;DHT22;54092;53.088;8.850;2022-07-04T07:27:05;18.40;91.20
67163;DHT22;54092;53.088;8.850;2022-07-04T07:29:30;18.60;89.20
67163;DHT22;54092;53.088;8.850;2022-07-04T07:31:56;18.60;90.10
67163;DHT22;54092;53.088;8.850;2022-07-04T07:34:21;18.60;86.20
67163;DHT22;54092;53.088;8.850;2022-07-04T07:36:47;18.50;84.10
67163;DHT22;54092;53.088;8.850;2022-07-04T07:39:12;18.50;76.50
67163;DHT22;54092;53.088;8.850;2022-07-04T07:41:38;18.40;78.00
67163;DHT22;54092;53.088;8.850;2022-07-04T07:44:03;18.50;82.00
67163;DHT22;54092;53.088;8.850;2022-07-04T07:46:29;18.70;81.60
67163;DHT22;54092;53.088;8.850;2022-07-04T07:48:54;18.80;86.10
67163;DHT22;54092;53.088;8.850;2022-07-04T07:51:20;19.00;74.70
67163;DHT22;54092;53.088;8.850;2022-07-04T07:53:45;19.00;73.70
67163;DHT22;54092;53.088;8.850;2022-07-04T07:56:10;19.10;74.60
67163;DHT22;54092;53.088;8.850;2022-07-04T07:58:36;19.30;72.20
67163;DHT22;54092;53.088;8.850;2022-07-04T08:01:01;19.20;74.20
67163;DHT22;54092;53.088;8.850;2022-07-04T08:03:30;19.30;76.10
67163;DHT22;54092;53.088;8.850;2022-07-04T08:06:15;19.20;76.40
67163;DHT22;54092;53.088;8.850;2022-07-04T08:08:41;19.10;81.70
67163;DHT22;54092;53.088;8.850;2022-07-04T08:11:06;19.30;80.80
67163;DHT22;54092;53.088;8.850;2022-07-04T08:13:32;19.40;83.20
67163;DHT22;54092;53.088;8.850;2022-07-04T08:15:57;19.40;79.90
67163;DHT22;54092;53.088;8.850;2022-07-04T08:18:23;19.40;83.30
67163;DHT22;54092;53.088;8.850;2022-07-04T08:20:49;19.60;75.40
67163;DHT22;54092;53.088;8.850;2022-07-04T08:23:15;19.60;75.20
67163;DHT22;54092;53.088;8.850;2022-07-04T08:25:40;19.70;74.90
67163;DHT22;54092;53.088;8.850;2022-07-04T08:28:06;19.80;71.90
67163;DHT22;54092;53.088;8.850;2022-07-04T08:30:31;20.00;68.10
67163;DHT22;54092;53.088;8.850;2022-07-04T08:32:57;20.10;67.30
67163;DHT22;54092;53.088;8.850;2022-07-04T08:35:22;19.90;63.80
67163;DHT22;54092;53.088;8.850;2022-07-04T08:37:48;19.90;68.40
67163;DHT22;54092;53.088;8.850;2022-07-04T08:40:21;20.10;64.90
67163;DHT22;54092;53.088;8.850;2022-07-04T08:42:48;20.30;62.90
67163;DHT22;54092;53.088;8.850;2022-07-04T08:45:14;20.30;64.80
67163;DHT22;54092;53.088;8.850;2022-07-04T08:47:40;20.50;63.10
67163;DHT22;54092;53.088;8.850;2022-07-04T08:50:08;20.50;60.20
67163;DHT22;54092;53.088;8.850;2022-07-04T08:52:41;20.50;61.20
67163;DHT22;54092;53.088;8.850;2022-07-04T08:55:08;20.70;61.80
67163;DHT22;54092;53.088;8.850;2022-07-04T08:57:52;20.80;59.50
67163;DHT22;54092;53.088;8.850;2022-07-04T09:00:37;20.50;58.70
67163;DHT22;54092;53.088;8.850;2022-07-04T09:03:03;20.70;61.90
67163;DHT22;54092;53.088;8.850;2022-07-04T09:05:29;20.90;59.30
67163;DHT22;54092;53.088;8.850;2022-07-04T09:07:55;20.90;57.10
67163;DHT22;54092;53.088;8.850;2022-07-04T09:10:21;20.70;57.90
67163;DHT22;54092;53.088;8.850;2022-07-04T09:12:46;20.40;59.50
67163;DHT22;54092;53.088;8.850;2022-07-04T09:15:11;20.30;60.80
67163;DHT22;54092;53.088;8.850;2022-07-04T09:17:37;20.50;61.60
67163;DHT22;54092;53.088;8.850;2022-07-04T09:22:37;22.30;53.80
67163;DHT22;54092;53.088;8.850;2022-07-04T09:25:03;22.80;50.10
67163;DHT22;54092;53.088;8.850;2022-07-04T09:27:30;22.70;50.40
67163;DHT22;54092;53.088;8.850;2022-07-04T09:29:56;22.20;51.50
67163;DHT22;54092;53.088;8.850;2022-07-04T09:32:42;21.70;52.30
67163;DHT22;54092;53.088;8.850;2022-07-04T09:35:11;21.50;54.00
67163;DHT22;54092;53.088;8.850;2022-07-04T09:37:41;21.40;55.60
67163;DHT22;54092;53.088;8.850;2022-07-04T09:40:22;21.40;54.20
67163;DHT22;54092;53.088;8.850;2022-07-04T09:42:48;21.70;53.90
67163;DHT22;54092;53.088;8.850;2022-07-04T09:45:13;22.10;51.40
67163;DHT22;54092;53.088;8.850;2022-07-04T09:47:40;22.00;51.30
67163;DHT22;54092;53.088;8.850;2022-07-04T09:50:10;21.90;51.90
67163;DHT22;54092;53.088;8.850;2022-07-04T09:55:19;22.10;50.30
67163;DHT22;54092;53.088;8.850;2022-07-04T09:57:45;21.60;51.90
67163;DHT22;54092;53.088;8.850;2022-07-04T10:02:42;21.20;52.40
67163;DHT22;54092;53.088;8.850;2022-07-04T10:05:08;22.10;49.10
67163;DHT22;54092;53.088;8.850;2022-07-04T10:07:34;22.90;46.40
67163;DHT22;54092;53.088;8.850;2022-07-04T10:10:10;23.80;44.30
67163;DHT22;54092;53.088;8.850;2022-07-04T10:12:48;23.90;43.50
67163;DHT22;54092;53.088;8.850;2022-07-04T10:15:13;24.90;42.30
67163;DHT22;54092;53.088;8.850;2022-07-04T10:17:39;24.50;41.20
67163;DHT22;54092;53.088;8.850;2022-07-04T10:20:05;23.20;45.10
67163;DHT22;54092;53.088;8.850;2022-07-04T10:22:31;22.60;46.80
67163;DHT22;54092;53.088;8.850;2022-07-04T10:24:57;21.90;47.70
67163;DHT22;54092;53.088;8.850;2022-07-04T10:27:22;21.50;49.90
67163;DHT22;54092;53.088;8.850;2022-07-04T10:29:48;21.60;50.50
67163;DHT22;54092;53.088;8.850;2022-07-04T10:32:14;22.70;48.00
67163;DHT22;54092;53.088;8.850;2022-07-04T10:34:40;24.50;44.50
67163;DHT22;54092;53.088;8.850;2022-07-04T10:37:06;25.40;40.70
67163;DHT22;54092;53.088;8.850;2022-07-04T10:39:31;24.90;40.90
67163;DHT22;54092;53.088;8.850;2022-07-04T10:41:58;24.00;44.20
67163;DHT22;54092;53.088;8.850;2022-07-04T10:44:25;23.60;44.30
67163;DHT22;54092;53.088;8.850;2022-07-04T10:46:51;22.80;45.60
67163;DHT22;54092;53.088;8.850;2022-07-04T10:49:21;22.50;46.70
67163;DHT22;54092;53.088;8.850;2022-07-04T10:51:48;22.30;48.10
67163;DHT22;54092;53.088;8.850;2022-07-04T10:54:15;22.50;47.50
67163;DHT22;54092;53.088;8.850;2022-07-04T10:56:42;23.00;46.90
67163;DHT22;54092;53.088;8.850;2022-07-04T10:59:09;23.80;44.40
67163;DHT22;54092;53.088;8.850;2022-07-04T11:01:35;24.60;42.10
67163;DHT22;54092;53.088;8.850;2022-07-04T11:04:00;24.80;41.20
67163;DHT22;54092;53.088;8.850;2022-07-04T11:17:13;27.10;35.90
67163;DHT22;54092;53.088;8.850;2022-07-04T11:19:39;27.80;34.90
67163;DHT22;54092;53.088;8.850;2022-07-04T11:22:05;27.20;34.60
67163;DHT22;54092;53.088;8.850;2022-07-04T11:24:31;26.80;34.60
67163;DHT22;54092;53.088;8.850;2022-07-04T11:26:56;27.00;34.30
67163;DHT22;54092;53.088;8.850;2022-07-04T11:29:22;28.00;33.90
67163;DHT22;54092;53.088;8.850;2022-07-04T11:31:49;28.20;33.20
67163;DHT22;54092;53.088;8.850;2022-07-04T11:34:15;26.80;33.60
67163;DHT22;54092;53.088;8.850;2022-07-04T11:36:41;25.00;37.90
67163;DHT22;54092;53.088;8.850;2022-07-04T11:39:07;24.30;40.20
67163;DHT22;54092;53.088;8.850;2022-07-04T11:44:21;24.60;39.30
67163;DHT22;54092;53.088;8.850;2022-07-04T11:49:30;23.60;42.80
67163;DHT22;54092;53.088;8.850;2022-07-04T11:51:56;23.30;42.60
67163;DHT22;54092;53.088;8.850;2022-07-04T11:54:21;23.20;42.80
67163;DHT22;54092;53.088;8.850;2022-07-04T11:56:47;23.00;42.90
67163;DHT22;54092;53.088;8.850;2022-07-04T11:59:13;23.00;43.70
67163;DHT22;54092;53.088;8.850;2022-07-04T12:01:40;23.70;41.60
67163;DHT22;54092;53.088;8.850;2022-07-04T12:04:18;25.30;39.80
67163;DHT22;54092;53.088;8.850;2022-07-04T12:06:47;26.20;36.20
67163;DHT22;54092;53.088;8.850;2022-07-04T12:09:13;27.10;34.20
67163;DHT22;54092;53.088;8.850;2022-07-04T12:11:54;27.90;32.00
67163;DHT22;54092;53.088;8.850;2022-07-04T12:14:20;27.70;32.00
67163;DHT22;54092;53.088;8.850;2022-07-04T12:16:46;26.20;34.20
67163;DHT22;54092;53.088;8.850;2022-07-04T12:19:12;25.00;38.20
67163;DHT22;54092;53.088;8.850;2022-07-04T12:21:37;25.30;38.20
67163;DHT22;54092;53.088;8.850;2022-07-04T12:24:04;26.80;34.30
67163;DHT22;54092;53.088;8.850;2022-07-04T12:26:30;25.90;34.50
67163;DHT22;54092;53.088;8.850;2022-07-04T12:28:55;26.00;34.70
67163;DHT22;54092;53.088;8.850;2022-07-04T12:31:39;25.70;36.10
67163;DHT22;54092;53.088;8.850;2022-07-04T12:34:13;26.80;34.00
67163;DHT22;54092;53.088;8.850;2022-07-04T12:36:54;27.60;32.50
67163;DHT22;54092;53.088;8.850;2022-07-04T12:42:10;25.80;35.20
67163;DHT22;54092;53.088;8.850;2022-07-04T12:44:36;24.30;39.20
67163;DHT22;54092;53.088;8.850;2022-07-04T12:47:04;24.60;38.70
67163;DHT22;54092;53.088;8.850;2022-07-04T12:49:31;24.70;36.90
67163;DHT22;54092;53.088;8.850;2022-07-04T12:52:03;24.70;38.40
67163;DHT22;54092;53.088;8.850;2022-07-04T12:54:29;24.30;39.50
67163;DHT22;54092;53.088;8.850;2022-07-04T12:57:02;23.60;40.00
67163;DHT22;54092;53.088;8.850;2022-07-04T12:59:28;23.50;41.10
67163;DHT22;54092;53.088;8.850;2022-07-04T13:01:54;24.50;39.70
67163;DHT22;54092;53.088;8.850;2022-07-04T13:04:19;24.90;37.80
67163;DHT22;54092;53.088;8.850;2022-07-04T13:06:44;24.50;38.90
67163;DHT22;54092;53.088;8.850;2022-07-04T13:09:10;24.30;40.90
67163;DHT22;54092;53.088;8.850;2022-07-04T13:11:36;24.00;41.90
67163;DHT22;54092;53.088;8.850;2022-07-04T13:14:20;23.30;44.70
67163;DHT22;54092;53.088;8.850;2022-07-04T13:16:45;22.70;48.40
67163;DHT22;54092;53.088;8.850;2022-07-04T13:19:11;22.30;50.70
67163;DHT22;54092;53.088;8.850;2022-07-04T13:21:36;22.20;52.20
67163;DHT22;54092;53.088;8.850;2022-07-04T13:24:02;22.20;52.60
67163;DHT22;54092;53.088;8.850;2022-07-04T13:26:27;22.20;52.80
67163;DHT22;54092;53.088;8.850;2022-07-04T13:28:55;22.30;52.20
67163;DHT22;54092;53.088;8.850;2022-07-04T13:31:21;22.40;50.70
67163;DHT22;54092;53.088;8.850;2022-07-04T13:33:46;22.70;50.50
67163;DHT22;54092;53.088;8.850;2022-07-04T13:36:12;23.00;49.70
67163;DHT22;54092;53.088;8.850;2022-07-04T13:38:38;23.10;48.60
67163;DHT22;54092;53.088;8.850;2022-07-04T13:41:04;23.20;48.50
67163;DHT22;54092;53.088;8.850;2022-07-04T13:43:30;23.20;48.80
67163;DHT22;54092;53.088;8.850;2022-07-04T13:45:55;23.00;46.80
67163;DHT22;54092;53.088;8.850;2022-07-04T13:48:22;23.10;46.70
67163;DHT22;54092;53.088;8.850;2022-07-04T13:50:47;23.20;46.40
67163;DHT22;54092;53.088;8.850;2022-07-04T13:53:13;23.30;44.50
67163;DHT22;54092;53.088;8.850;2022-07-04T13:55:38;23.50;45.10
67163;DHT22;54092;53.088;8.850;2022-07-04T13:58:05;23.60;41.80
67163;DHT22;54092;53.088;8.850;2022-07-04T14:00:31;23.60;41.90
67163;DHT22;54092;53.088;8.850;2022-07-04T14:02:56;23.60;41.20
67163;DHT22;54092;53.088;8.850;2022-07-04T14:05:21;23.40;40.70
67163;DHT22;54092;53.088;8.850;2022-07-04T14:07:49;23.20;42.20
67163;DHT22;54092;53.088;8.850;2022-07-04T14:10:15;23.20;42.60
67163;DHT22;54092;53.088;8.850;2022-07-04T14:12:40;23.10;42.60
67163;DHT22;54092;53.088;8.850;2022-07-04T14:15:06;22.90;42.80
67163;DHT22;54092;53.088;8.850;2022-07-04T14:17:32;23.00;43.10
67163;DHT22;54092;53.088;8.850;2022-07-04T14:19:57;23.20;42.60
67163;DHT22;54092;53.088;8.850;2022-07-04T14:22:23;23.30;42.00
67163;DHT22;54092;53.088;8.850;2022-07-04T14:24:48;23.40;43.50
67163;DHT22;54092;53.088;8.850;2022-07-04T14:27:14;23.50;42.80
67163;DHT22;54092;53.088;8.850;2022-07-04T14:29:39;23.50;42.90
67163;DHT22;54092;53.088;8.850;2022-07-04T14:32:06;23.40;42.80
67163;DHT22;54092;53.088;8.850;2022-07-04T14:34:32;23.10;42.50
67163;DHT22;54092;53.088;8.850;2022-07-04T14:36:57;23.00;43.80
67163;DHT22;54092;53.088;8.850;2022-07-04T14:39:22;23.10;44.40
67163;DHT22;54092;53.088;8.850;2022-07-04T14:41:48;23.40;43.10
67163;DHT22;54092;53.088;8.850;2022-07-04T14:44:14;23.60;43.00
67163;DHT22;54092;53.088;8.850;2022-07-04T14:46:40;23.60;42.20
67163;DHT22;54092;53.088;8.850;2022-07-04T14:49:05;23.70;42.60
67163;DHT22;54092;53.088;8.850;2022-07-04T14:51:31;23.80;43.40
67163;DHT22;54092;53.088;8.850;2022-07-04T14:53:56;23.60;41.50
67163;DHT22;54092;53.088;8.850;2022-07-04T14:56:21;23.50;43.30
67163;DHT22;54092;53.088;8.850;2022-07-04T14:58:47;23.60;43.90
67163;DHT22;54092;53.088;8.850;2022-07-04T15:01:12;23.50;42.00
67163;DHT22;54092;53.088;8.850;2022-07-04T15:03:38;23.40;42.60
67163;DHT22;54092;53.088;8.850;2022-07-04T15:06:03;23.20;42.80
67163;DHT22;54092;53.088;8.850;2022-07-04T15:08:29;23.00;43.70
67163;DHT22;54092;53.088;8.850;2022-07-04T15:10:54;22.90;43.20
67163;DHT22;54092;53.088;8.850;2022-07-04T15:13:20;23.00;43.50
67163;DHT22;54092;53.088;8.850;2022-07-04T15:15:45;23.20;43.40
67163;DHT22;54092;53.088;8.850;2022-07-04T15:18:10;23.40;42.90
67163;DHT22;54092;53.088;8.850;2022-07-04T15:20:37;23.20;42.80
67163;DHT22;54092;53.088;8.850;2022-07-04T15:23:21;23.00;43.30
67163;DHT22;54092;53.088;8.850;2022-07-04T15:26:05;23.00;43.90
67163;DHT22;54092;53.088;8.850;2022-07-04T15:28:30;23.30;42.90
67163;DHT22;54092;53.088;8.850;2022-07-04T15:30:56;23.40;43.00
67163;DHT22;54092;53.088;8.850;2022-07-04T15:33:21;23.50;42.20
67163;DHT22;54092;53.088;8.850;2022-07-04T15:35:51;23.50;42.50
67163;DHT22;54092;53.088;8.850;2022-07-04T15:38:18;23.50;42.30
67163;DHT22;54092;53.088;8.850;2022-07-04T15:40:43;23.70;42.60
67163;DHT22;54092;53.088;8.850;2022-07-04T15:43:09;23.70;41.50
67163;DHT22;54092;53.088;8.850;2022-07-04T15:45:34;23.80;42.20
67163;DHT22;54092;53.088;8.850;2022-07-04T15:47:59;23.80;41.80
67163;DHT22;54092;53.088;8.850;2022-07-04T15:50:25;23.80;40.90
67163;DHT22;54092;53.088;8.850;2022-07-04T15:52:52;23.60;41.80